sensor_id;sensor_type;location;lat;lon;timestamp;pressure;altitude;pressure_sealevel;temperature
20848;BMP180;10584;50.854;12.902;2023-10-19T00:04:03;96719.00;;;8.40
20848;BMP180;10584;50.854;12.902;2023-10-19T00:09:26;96699.00;;;8.50
20848;BMP180;10584;50.854;12.902;2023-10-19T00:14:52;96678.00;;;8.40
20848;BMP180;10584;50.854;12.902;2023-10-19T00:20:15;96679.00;;;8.40
20848;BMP180;10584;50.854;12.902;2023-10-19T00:26:04;96681.00;;;8.50
20848;BMP180;10584;50.854;12.902;2023-10-19T00:31:31;96671.00;;;8.60
20848;BMP180;10584;50.854;12.902;2023-10-19T00:36:58;96657.00;;;8.60
20848;BMP180;10584;50.854;12.902;2023-10-19T00:42:28;96654.00;;;8.50
20848;BMP180;10584;50.854;12.902;2023-10-19T00:47:52;96648.00;;;8.50
20848;BMP180;10584;50.854;12.902;2023-10-19T00:53:14;96645.00;;;8.40
20848;BMP180;10584;50.854;12.902;2023-10-19T00:58:38;96632.00;;;8.50
20848;BMP180;10584;50.854;12.902;2023-10-19T01:04:05;96627.00;;;8.30
20848;BMP180;10584;50.854;12.902;2023-10-19T01:09:27;96624.00;;;8.40
20848;BMP180;10584;50.854;12.902;2023-10-19T01:15:05;96630.00;;;8.40
20848;BMP180;10584;50.854;12.902;2023-10-19T01:20:38;96613.00;;;8.20
20848;BMP180;10584;50.854;12.902;2023-10-19T01:26:16;96597.00;;;8.20
20848;BMP180;10584;50.854;12.902;2023-10-19T01:31:47;96584.00;;;8.30
20848;BMP180;10584;50.854;12.902;2023-10-19T01:37:26;96579.00;;;8.20
20848;BMP180;10584;50.854;12.902;2023-10-19T01:42:48;96567.00;;;8.10
20848;BMP180;10584;50.854;12.902;2023-10-19T01:48:09;96561.00;;;7.90
20848;BMP180;10584;50.854;12.902;2023-10-19T01:53:34;96564.00;;;7.70
20848;BMP180;10584;50.854;12.902;2023-10-19T01:58:57;96547.00;;;7.60
20848;BMP180;10584;50.854;12.902;2023-10-19T02:04:20;96533.00;;;7.40
20848;BMP180;10584;50.854;12.902;2023-10-19T02:09:42;96529.00;;;7.30
20848;BMP180;10584;50.854;12.902;2023-10-19T02:15:05;96517.00;;;7.20
20848;BMP180;10584;50.854;12.902;2023-10-19T02:20:27;96510.00;;;7.00
20848;BMP180;10584;50.854;12.902;2023-10-19T02:25:51;96504.00;;;7.00
20848;BMP180;10584;50.854;12.902;2023-10-19T02:31:14;96497.00;;;7.00
20848;BMP180;10584;50.854;12.902;2023-10-19T02:36:38;96498.00;;;6.90
20848;BMP180;10584;50.854;12.902;2023-10-19T02:42:00;96493.00;;;6.90
20848;BMP180;10584;50.854;12.902;2023-10-19T02:47:23;96492.00;;;6.80
20848;BMP180;10584;50.854;12.902;2023-10-19T02:52:45;96483.00;;;6.80
20848;BMP180;10584;50.854;12.902;2023-10-19T02:58:07;96485.00;;;6.80
20848;BMP180;10584;50.854;12.902;2023-10-19T03:03:29;96466.00;;;6.70
20848;BMP180;10584;50.854;12.902;2023-10-19T03:08:52;96461.00;;;6.60
20848;BMP180;10584;50.854;12.902;2023-10-19T03:14:19;96456.00;;;6.70
20848;BMP180;10584;50.854;12.902;2023-10-19T03:19:41;96448.00;;;6.70
20848;BMP180;10584;50.854;12.902;2023-10-19T03:25:05;96446.00;;;6.80
20848;BMP180;10584;50.854;12.902;2023-10-19T03:30:45;96437.00;;;6.90
20848;BMP180;10584;50.854;12.902;2023-10-19T03:36:08;96434.00;;;6.80
20848;BMP180;10584;50.854;12.902;2023-10-19T03:41:34;96419.00;;;7.00
20848;BMP180;10584;50.854;12.902;2023-10-19T03:46:57;96418.00;;;6.90
20848;BMP180;10584;50.854;12.902;2023-10-19T03:52:19;96414.00;;;7.00
20848;BMP180;10584;50.854;12.902;2023-10-19T03:57:42;96390.00;;;6.90
20848;BMP180;10584;50.854;12.902;2023-10-19T04:03:08;96387.00;;;6.80
20848;BMP180;10584;50.854;12.902;2023-10-19T04:08:30;96374.00;;;6.90
20848;BMP180;10584;50.854;12.902;2023-10-19T04:13:56;96379.00;;;6.80
20848;BMP180;10584;50.854;12.902;2023-10-19T04:19:20;96377.00;;;6.90
20848;BMP180;10584;50.854;12.902;2023-10-19T04:24:42;96364.00;;;6.90
20848;BMP180;10584;50.854;12.902;2023-10-19T04:30:03;96361.00;;;6.90
20848;BMP180;10584;50.854;12.902;2023-10-19T04:35:25;96361.00;;;6.90
20848;BMP180;10584;50.854;12.902;2023-10-19T04:40:51;96357.00;;;6.90
20848;BMP180;10584;50.854;12.902;2023-10-19T04:46:16;96365.00;;;7.00
20848;BMP180;10584;50.854;12.902;2023-10-19T04:51:40;96344.00;;;7.10
20848;BMP180;10584;50.854;12.902;2023-10-19T04:57:01;96325.00;;;7.10
20848;BMP180;10584;50.854;12.902;2023-10-19T05:02:24;96338.00;;;7.10
20848;BMP180;10584;50.854;12.902;2023-10-19T05:07:46;96325.00;;;7.20
20848;BMP180;10584;50.854;12.902;2023-10-19T05:13:07;96320.00;;;7.10
20848;BMP180;10584;50.854;12.902;2023-10-19T05:18:29;96336.00;;;7.20
20848;BMP180;10584;50.854;12.902;2023-10-19T05:23:50;96323.00;;;7.20
20848;BMP180;10584;50.854;12.902;2023-10-19T05:29:12;96313.00;;;7.20
20848;BMP180;10584;50.854;12.902;2023-10-19T05:34:33;96315.00;;;7.30
20848;BMP180;10584;50.854;12.902;2023-10-19T05:39:56;96318.00;;;7.30
20848;BMP180;10584;50.854;12.902;2023-10-19T05:45:18;96316.00;;;7.30
20848;BMP180;10584;50.854;12.902;2023-10-19T05:50:41;96307.00;;;7.30
20848;BMP180;10584;50.854;12.902;2023-10-19T05:56:04;96310.00;;;7.40
20848;BMP180;10584;50.854;12.902;2023-10-19T06:01:25;96305.00;;;7.40
20848;BMP180;10584;50.854;12.902;2023-10-19T06:06:47;96309.00;;;7.40
20848;BMP180;10584;50.854;12.902;2023-10-19T06:12:16;96307.00;;;7.40
20848;BMP180;10584;50.854;12.902;2023-10-19T06:17:38;96319.00;;;7.50
20848;BMP180;10584;50.854;12.902;2023-10-19T06:23:01;96315.00;;;7.60
20848;BMP180;10584;50.854;12.902;2023-10-19T06:28:26;96311.00;;;7.50
20848;BMP180;10584;50.854;12.902;2023-10-19T06:33:47;96324.00;;;7.60
20848;BMP180;10584;50.854;12.902;2023-10-19T06:39:09;96325.00;;;7.60
20848;BMP180;10584;50.854;12.902;2023-10-19T06:44:30;96324.00;;;7.60
20848;BMP180;10584;50.854;12.902;2023-10-19T06:49:53;96329.00;;;7.70
20848;BMP180;10584;50.854;12.902;2023-10-19T06:55:15;96328.00;;;7.60
20848;BMP180;10584;50.854;12.902;2023-10-19T07:00:55;96317.00;;;7.70
20848;BMP180;10584;50.854;12.902;2023-10-19T07:06:17;96313.00;;;7.70
20848;BMP180;10584;50.854;12.902;2023-10-19T07:11:39;96306.00;;;7.50
20848;BMP180;10584;50.854;12.902;2023-10-19T07:17:01;96304.00;;;7.60
20848;BMP180;10584;50.854;12.902;2023-10-19T07:22:22;96308.00;;;7.60
20848;BMP180;10584;50.854;12.902;2023-10-19T07:27:46;96307.00;;;7.60
20848;BMP180;10584;50.854;12.902;2023-10-19T07:33:09;96308.00;;;7.60
20848;BMP180;10584;50.854;12.902;2023-10-19T07:38:31;96283.00;;;7.70
20848;BMP180;10584;50.854;12.902;2023-10-19T07:43:54;96293.00;;;7.80
20848;BMP180;10584;50.854;12.902;2023-10-19T07:49:16;96303.00;;;7.90
20848;BMP180;10584;50.854;12.902;2023-10-19T07:54:38;96303.00;;;8.00
20848;BMP180;10584;50.854;12.902;2023-10-19T07:59:59;96290.00;;;8.20
20848;BMP180;10584;50.854;12.902;2023-10-19T08:05:24;96300.00;;;8.40
20848;BMP180;10584;50.854;12.902;2023-10-19T08:10:47;96304.00;;;8.50
20848;BMP180;10584;50.854;12.902;2023-10-19T08:16:08;96299.00;;;8.70
20848;BMP180;10584;50.854;12.902;2023-10-19T08:21:30;96301.00;;;8.80
20848;BMP180;10584;50.854;12.902;2023-10-19T08:26:52;96294.00;;;9.00
20848;BMP180;10584;50.854;12.902;2023-10-19T08:32:16;96300.00;;;9.10
20848;BMP180;10584;50.854;12.902;2023-10-19T08:37:41;96298.00;;;9.20
20848;BMP180;10584;50.854;12.902;2023-10-19T08:43:03;96300.00;;;9.30
20848;BMP180;10584;50.854;12.902;2023-10-19T08:48:26;96294.00;;;9.40
20848;BMP180;10584;50.854;12.902;2023-10-19T08:53:48;96301.00;;;9.50
20848;BMP180;10584;50.854;12.902;2023-10-19T08:59:10;96307.00;;;9.60
20848;BMP180;10584;50.854;12.902;2023-10-19T09:04:40;96299.00;;;9.60
20848;BMP180;10584;50.854;12.902;2023-10-19T09:10:02;96296.00;;;9.70
20848;BMP180;10584;50.854;12.902;2023-10-19T09:15:27;96294.00;;;9.70
20848;BMP180;10584;50.854;12.902;2023-10-19T09:20:51;96291.00;;;9.90
20848;BMP180;10584;50.854;12.902;2023-10-19T09:26:31;96288.00;;;10.00
20848;BMP180;10584;50.854;12.902;2023-10-19T09:31:53;96290.00;;;10.10
20848;BMP180;10584;50.854;12.902;2023-10-19T09:37:18;96279.00;;;10.20
20848;BMP180;10584;50.854;12.902;2023-10-19T09:42:44;96277.00;;;10.20
20848;BMP180;10584;50.854;12.902;2023-10-19T09:48:10;96290.00;;;10.30
20848;BMP180;10584;50.854;12.902;2023-10-19T09:53:39;96281.00;;;10.40
20848;BMP180;10584;50.854;12.902;2023-10-19T09:59:22;96271.00;;;10.50
20848;BMP180;10584;50.854;12.902;2023-10-19T10:04:45;96271.00;;;10.60
20848;BMP180;10584;50.854;12.902;2023-10-19T10:10:08;96275.00;;;10.70
20848;BMP180;10584;50.854;12.902;2023-10-19T10:15:41;96268.00;;;10.90
20848;BMP180;10584;50.854;12.902;2023-10-19T10:21:12;96254.00;;;10.90
20848;BMP180;10584;50.854;12.902;2023-10-19T10:26:57;96244.00;;;11.00
20848;BMP180;10584;50.854;12.902;2023-10-19T10:32:42;96241.00;;;11.20
20848;BMP180;10584;50.854;12.902;2023-10-19T10:38:06;96231.00;;;11.30
20848;BMP180;10584;50.854;12.902;2023-10-19T10:43:27;96227.00;;;11.50
20848;BMP180;10584;50.854;12.902;2023-10-19T10:48:49;96208.00;;;11.70
20848;BMP180;10584;50.854;12.902;2023-10-19T10:54:13;96211.00;;;11.90
20848;BMP180;10584;50.854;12.902;2023-10-19T10:59:35;96205.00;;;12.20
20848;BMP180;10584;50.854;12.902;2023-10-19T11:04:57;96216.00;;;12.40
20848;BMP180;10584;50.854;12.902;2023-10-19T11:10:27;96212.00;;;12.70
20848;BMP180;10584;50.854;12.902;2023-10-19T11:15:53;96210.00;;;12.80
20848;BMP180;10584;50.854;12.902;2023-10-19T11:21:19;96207.00;;;13.10
20848;BMP180;10584;50.854;12.902;2023-10-19T11:26:41;96202.00;;;13.40
20848;BMP180;10584;50.854;12.902;2023-10-19T11:32:03;96197.00;;;13.80
20848;BMP180;10584;50.854;12.902;2023-10-19T11:37:24;96189.00;;;14.10
20848;BMP180;10584;50.854;12.902;2023-10-19T11:42:46;96192.00;;;14.40
20848;BMP180;10584;50.854;12.902;2023-10-19T11:48:08;96185.00;;;14.60
20848;BMP180;10584;50.854;12.902;2023-10-19T11:53:32;96192.00;;;14.80
20848;BMP180;10584;50.854;12.902;2023-10-19T11:58:55;96191.00;;;15.00
20848;BMP180;10584;50.854;12.902;2023-10-19T12:04:19;96186.00;;;15.20
20848;BMP180;10584;50.854;12.902;2023-10-19T12:09:41;96186.00;;;15.40
20848;BMP180;10584;50.854;12.902;2023-10-19T12:15:06;96165.00;;;15.50
20848;BMP180;10584;50.854;12.902;2023-10-19T12:20:28;96174.00;;;15.70
20848;BMP180;10584;50.854;12.902;2023-10-19T12:25:52;96171.00;;;15.80
20848;BMP180;10584;50.854;12.902;2023-10-19T12:31:18;96168.00;;;15.90
20848;BMP180;10584;50.854;12.902;2023-10-19T12:36:40;96163.00;;;16.10
20848;BMP180;10584;50.854;12.902;2023-10-19T12:42:02;96148.00;;;16.20
20848;BMP180;10584;50.854;12.902;2023-10-19T12:47:24;96141.00;;;16.60
20848;BMP180;10584;50.854;12.902;2023-10-19T12:52:46;96130.00;;;16.90
20848;BMP180;10584;50.854;12.902;2023-10-19T12:58:08;96137.00;;;17.20
20848;BMP180;10584;50.854;12.902;2023-10-19T13:03:30;96140.00;;;17.30
20848;BMP180;10584;50.854;12.902;2023-10-19T13:08:54;96134.00;;;17.20
20848;BMP180;10584;50.854;12.902;2023-10-19T13:14:15;96137.00;;;17.40
20848;BMP180;10584;50.854;12.902;2023-10-19T13:19:38;96136.00;;;17.30
20848;BMP180;10584;50.854;12.902;2023-10-19T13:25:00;96130.00;;;17.20
20848;BMP180;10584;50.854;12.902;2023-10-19T13:30:21;96129.00;;;17.10
20848;BMP180;10584;50.854;12.902;2023-10-19T13:35:45;96130.00;;;16.90
20848;BMP180;10584;50.854;12.902;2023-10-19T13:41:07;96128.00;;;16.90
20848;BMP180;10584;50.854;12.902;2023-10-19T13:46:32;96112.00;;;16.90
20848;BMP180;10584;50.854;12.902;2023-10-19T13:51:54;96124.00;;;16.90
20848;BMP180;10584;50.854;12.902;2023-10-19T13:57:15;96121.00;;;16.90
20848;BMP180;10584;50.854;12.902;2023-10-19T14:02:37;96118.00;;;17.10
20848;BMP180;10584;50.854;12.902;2023-10-19T14:08:00;96116.00;;;17.00
20848;BMP180;10584;50.854;12.902;2023-10-19T14:13:22;96112.00;;;16.80
20848;BMP180;10584;50.854;12.902;2023-10-19T14:18:43;96105.00;;;16.80
20848;BMP180;10584;50.854;12.902;2023-10-19T14:24:05;96110.00;;;16.90
20848;BMP180;10584;50.854;12.902;2023-10-19T14:29:29;96107.00;;;16.70
20848;BMP180;10584;50.854;12.902;2023-10-19T14:34:51;96092.00;;;16.90
20848;BMP180;10584;50.854;12.902;2023-10-19T14:40:17;96101.00;;;16.90
20848;BMP180;10584;50.854;12.902;2023-10-19T14:45:44;96097.00;;;16.80
20848;BMP180;10584;50.854;12.902;2023-10-19T14:51:05;96096.00;;;16.80
20848;BMP180;10584;50.854;12.902;2023-10-19T14:56:28;96096.00;;;16.80
20848;BMP180;10584;50.854;12.902;2023-10-19T15:01:49;96102.00;;;16.60
20848;BMP180;10584;50.854;12.902;2023-10-19T15:07:11;96102.00;;;16.60
20848;BMP180;10584;50.854;12.902;2023-10-19T15:12:33;96112.00;;;16.40
20848;BMP180;10584;50.854;12.902;2023-10-19T15:17:55;96101.00;;;16.30
20848;BMP180;10584;50.854;12.902;2023-10-19T15:23:17;96098.00;;;16.20
20848;BMP180;10584;50.854;12.902;2023-10-19T15:28:38;96099.00;;;16.00
20848;BMP180;10584;50.854;12.902;2023-10-19T15:33:59;96101.00;;;15.80
20848;BMP180;10584;50.854;12.902;2023-10-19T15:39:21;96097.00;;;15.70
20848;BMP180;10584;50.854;12.902;2023-10-19T15:44:45;96097.00;;;15.50
20848;BMP180;10584;50.854;12.902;2023-10-19T15:50:10;96096.00;;;15.20
20848;BMP180;10584;50.854;12.902;2023-10-19T15:55:33;96086.00;;;15.00
20848;BMP180;10584;50.854;12.902;2023-10-19T16:00:54;96093.00;;;15.10
20848;BMP180;10584;50.854;12.902;2023-10-19T16:06:16;96086.00;;;14.90
20848;BMP180;10584;50.854;12.902;2023-10-19T16:11:37;96090.00;;;14.70
20848;BMP180;10584;50.854;12.902;2023-10-19T16:16:59;96085.00;;;14.70
20848;BMP180;10584;50.854;12.902;2023-10-19T16:22:20;96083.00;;;14.60
20848;BMP180;10584;50.854;12.902;2023-10-19T16:27:43;96090.00;;;14.40
20848;BMP180;10584;50.854;12.902;2023-10-19T16:33:05;96094.00;;;14.30
20848;BMP180;10584;50.854;12.902;2023-10-19T16:38:26;96101.00;;;14.10
20848;BMP180;10584;50.854;12.902;2023-10-19T16:43:48;96096.00;;;14.00
20848;BMP180;10584;50.854;12.902;2023-10-19T16:49:10;96095.00;;;13.90
20848;BMP180;10584;50.854;12.902;2023-10-19T16:54:31;96097.00;;;13.80
20848;BMP180;10584;50.854;12.902;2023-10-19T16:59:54;96094.00;;;13.70
20848;BMP180;10584;50.854;12.902;2023-10-19T17:05:17;96086.00;;;13.60
20848;BMP180;10584;50.854;12.902;2023-10-19T17:10:41;96086.00;;;13.50
20848;BMP180;10584;50.854;12.902;2023-10-19T17:16:03;96071.00;;;13.50
20848;BMP180;10584;50.854;12.902;2023-10-19T17:21:25;96053.00;;;13.40
20848;BMP180;10584;50.854;12.902;2023-10-19T17:26:46;96049.00;;;13.30
20848;BMP180;10584;50.854;12.902;2023-10-19T17:32:08;96059.00;;;13.30
20848;BMP180;10584;50.854;12.902;2023-10-19T17:37:29;96051.00;;;13.20
20848;BMP180;10584;50.854;12.902;2023-10-19T17:42:51;96050.00;;;13.20
20848;BMP180;10584;50.854;12.902;2023-10-19T17:48:14;96044.00;;;13.10
20848;BMP180;10584;50.854;12.902;2023-10-19T17:53:37;96049.00;;;13.10
20848;BMP180;10584;50.854;12.902;2023-10-19T17:59:02;96036.00;;;13.00
20848;BMP180;10584;50.854;12.902;2023-10-19T18:04:23;96031.00;;;13.00
20848;BMP180;10584;50.854;12.902;2023-10-19T18:09:47;96027.00;;;13.00
20848;BMP180;10584;50.854;12.902;2023-10-19T18:15:11;96021.00;;;13.00
20848;BMP180;10584;50.854;12.902;2023-10-19T18:20:34;96015.00;;;12.90
20848;BMP180;10584;50.854;12.902;2023-10-19T18:25:56;96012.00;;;12.90
20848;BMP180;10584;50.854;12.902;2023-10-19T18:31:17;96024.00;;;12.90
20848;BMP180;10584;50.854;12.902;2023-10-19T18:36:39;95987.00;;;12.90
20848;BMP180;10584;50.854;12.902;2023-10-19T18:42:01;95985.00;;;12.90
20848;BMP180;10584;50.854;12.902;2023-10-19T18:47:24;95990.00;;;12.80
20848;BMP180;10584;50.854;12.902;2023-10-19T18:52:46;95979.00;;;12.80
20848;BMP180;10584;50.854;12.902;2023-10-19T18:58:07;95978.00;;;12.80
20848;BMP180;10584;50.854;12.902;2023-10-19T19:03:31;95971.00;;;12.80
20848;BMP180;10584;50.854;12.902;2023-10-19T19:08:53;95961.00;;;12.80
20848;BMP180;10584;50.854;12.902;2023-10-19T19:14:14;95953.00;;;12.80
20848;BMP180;10584;50.854;12.902;2023-10-19T19:19:36;95942.00;;;12.80
20848;BMP180;10584;50.854;12.902;2023-10-19T19:24:58;95955.00;;;12.80
20848;BMP180;10584;50.854;12.902;2023-10-19T19:30:20;95950.00;;;12.80
20848;BMP180;10584;50.854;12.902;2023-10-19T19:35:42;95949.00;;;12.80
20848;BMP180;10584;50.854;12.902;2023-10-19T19:41:03;95951.00;;;12.80
20848;BMP180;10584;50.854;12.902;2023-10-19T19:46:25;95943.00;;;12.80
20848;BMP180;10584;50.854;12.902;2023-10-19T19:51:46;95945.00;;;12.80
20848;BMP180;10584;50.854;12.902;2023-10-19T19:57:08;95957.00;;;12.80
20848;BMP180;10584;50.854;12.902;2023-10-19T20:02:29;95966.00;;;12.80
20848;BMP180;10584;50.854;12.902;2023-10-19T20:07:51;95957.00;;;12.80
20848;BMP180;10584;50.854;12.902;2023-10-19T20:13:14;95943.00;;;12.80
20848;BMP180;10584;50.854;12.902;2023-10-19T20:18:37;95943.00;;;12.80
20848;BMP180;10584;50.854;12.902;2023-10-19T20:23:58;95942.00;;;12.80
20848;BMP180;10584;50.854;12.902;2023-10-19T20:29:20;95922.00;;;12.70
20848;BMP180;10584;50.854;12.902;2023-10-19T20:34:41;95927.00;;;12.70
20848;BMP180;10584;50.854;12.902;2023-10-19T20:40:03;95936.00;;;12.70
20848;BMP180;10584;50.854;12.902;2023-10-19T20:45:30;95935.00;;;12.70
20848;BMP180;10584;50.854;12.902;2023-10-19T20:50:51;95922.00;;;12.70
20848;BMP180;10584;50.854;12.902;2023-10-19T20:56:13;95915.00;;;12.70
20848;BMP180;10584;50.854;12.902;2023-10-19T21:01:35;95921.00;;;12.70
20848;BMP180;10584;50.854;12.902;2023-10-19T21:06:57;95915.00;;;12.70
20848;BMP180;10584;50.854;12.902;2023-10-19T21:12:19;95907.00;;;12.70
20848;BMP180;10584;50.854;12.902;2023-10-19T21:17:44;95916.00;;;12.60
20848;BMP180;10584;50.854;12.902;2023-10-19T21:23:06;95916.00;;;12.60
20848;BMP180;10584;50.854;12.902;2023-10-19T21:28:28;95914.00;;;12.60
20848;BMP180;10584;50.854;12.902;2023-10-19T21:33:53;95895.00;;;12.60
20848;BMP180;10584;50.854;12.902;2023-10-19T21:39:14;95904.00;;;12.50
20848;BMP180;10584;50.854;12.902;2023-10-19T21:44:38;95901.00;;;12.50
20848;BMP180;10584;50.854;12.902;2023-10-19T21:49:59;95894.00;;;12.50
20848;BMP180;10584;50.854;12.902;2023-10-19T21:55:21;95904.00;;;12.40
20848;BMP180;10584;50.854;12.902;2023-10-19T22:00:43;95887.00;;;12.40
20848;BMP180;10584;50.854;12.902;2023-10-19T22:06:10;95882.00;;;12.40
20848;BMP180;10584;50.854;12.902;2023-10-19T22:11:36;95875.00;;;12.30
20848;BMP180;10584;50.854;12.902;2023-10-19T22:17:15;95878.00;;;12.30
20848;BMP180;10584;50.854;12.902;2023-10-19T22:22:54;95891.00;;;12.30
20848;BMP180;10584;50.854;12.902;2023-10-19T22:28:31;95870.00;;;12.30
20848;BMP180;10584;50.854;12.902;2023-10-19T22:34:19;95860.00;;;12.20
20848;BMP180;10584;50.854;12.902;2023-10-19T22:39:41;95856.00;;;12.20
20848;BMP180;10584;50.854;12.902;2023-10-19T22:45:03;95859.00;;;12.10
20848;BMP180;10584;50.854;12.902;2023-10-19T22:50:25;95864.00;;;12.10
20848;BMP180;10584;50.854;12.902;2023-10-19T22:55:57;95856.00;;;12.10
20848;BMP180;10584;50.854;12.902;2023-10-19T23:01:54;95855.00;;;12.10
20848;BMP180;10584;50.854;12.902;2023-10-19T23:07:37;95851.00;;;12.00
20848;BMP180;10584;50.854;12.902;2023-10-19T23:12:58;95846.00;;;12.10
20848;BMP180;10584;50.854;12.902;2023-10-19T23:18:29;95846.00;;;12.00
20848;BMP180;10584;50.854;12.902;2023-10-19T23:24:12;95822.00;;;11.90
20848;BMP180;10584;50.854;12.902;2023-10-19T23:29:37;95814.00;;;11.90
20848;BMP180;10584;50.854;12.902;2023-10-19T23:35:08;95800.00;;;11.90
20848;BMP180;10584;50.854;12.902;2023-10-19T23:40:30;95801.00;;;11.90
20848;BMP180;10584;50.854;12.902;2023-10-19T23:46:12;95807.00;;;11.90
20848;BMP180;10584;50.854;12.902;2023-10-19T23:51:52;95804.00;;;11.90
20848;BMP180;10584;50.854;12.902;2023-10-19T23:57:42;95808.00;;;11.90
